sensor_id;sensor_type;location;lat;lon;timestamp;P1;durP1;ratioP1;P2;durP2;ratioP2
83194;SDS011;73090;49.282;11.402;2024-01-30T00:03:21;9.10;;;3.60;;
83194;SDS011;73090;49.282;11.402;2024-01-30T00:07:23;5.88;;;3.40;;
83194;SDS011;73090;49.282;11.402;2024-01-30T00:11:25;5.10;;;3.05;;
83194;SDS011;73090;49.282;11.402;2024-01-30T00:15:26;7.47;;;3.38;;
83194;SDS011;73090;49.282;11.402;2024-01-30T00:19:28;4.43;;;3.05;;
83194;SDS011;73090;49.282;11.402;2024-01-30T00:23:30;9.35;;;3.53;;
83194;SDS011;73090;49.282;11.402;2024-01-30T00:27:31;7.45;;;3.72;;
83194;SDS011;73090;49.282;11.402;2024-01-30T00:31:33;5.68;;;2.92;;
83194;SDS011;73090;49.282;11.402;2024-01-30T00:35:35;3.85;;;2.88;;
83194;SDS011;73090;49.282;11.402;2024-01-30T00:39:36;6.47;;;3.10;;
83194;SDS011;73090;49.282;11.402;2024-01-30T00:43:38;9.18;;;2.83;;
83194;SDS011;73090;49.282;11.402;2024-01-30T00:47:39;8.57;;;5.03;;
83194;SDS011;73090;49.282;11.402;2024-01-30T00:51:41;7.03;;;3.20;;
83194;SDS011;73090;49.282;11.402;2024-01-30T00:55:43;5.45;;;3.80;;
83194;SDS011;73090;49.282;11.402;2024-01-30T00:59:44;6.18;;;4.03;;
83194;SDS011;73090;49.282;11.402;2024-01-30T01:03:46;6.88;;;3.70;;
83194;SDS011;73090;49.282;11.402;2024-01-30T01:07:48;7.55;;;3.22;;
83194;SDS011;73090;49.282;11.402;2024-01-30T01:11:49;8.90;;;3.92;;
83194;SDS011;73090;49.282;11.402;2024-01-30T01:15:51;6.40;;;3.83;;
83194;SDS011;73090;49.282;11.402;2024-01-30T01:19:52;5.97;;;3.22;;
83194;SDS011;73090;49.282;11.402;2024-01-30T01:23:54;8.07;;;4.47;;
83194;SDS011;73090;49.282;11.402;2024-01-30T01:27:55;5.63;;;4.05;;
83194;SDS011;73090;49.282;11.402;2024-01-30T01:31:58;7.68;;;4.00;;
83194;SDS011;73090;49.282;11.402;2024-01-30T01:36:00;6.82;;;4.25;;
83194;SDS011;73090;49.282;11.402;2024-01-30T01:40:04;7.28;;;3.75;;
83194;SDS011;73090;49.282;11.402;2024-01-30T01:44:06;5.57;;;3.88;;
83194;SDS011;73090;49.282;11.402;2024-01-30T01:48:08;6.55;;;4.13;;
83194;SDS011;73090;49.282;11.402;2024-01-30T01:52:10;6.18;;;3.83;;
83194;SDS011;73090;49.282;11.402;2024-01-30T01:56:12;7.20;;;3.70;;
83194;SDS011;73090;49.282;11.402;2024-01-30T02:00:14;5.60;;;3.22;;
83194;SDS011;73090;49.282;11.402;2024-01-30T02:04:17;7.57;;;3.95;;
83194;SDS011;73090;49.282;11.402;2024-01-30T02:08:18;6.05;;;3.67;;
83194;SDS011;73090;49.282;11.402;2024-01-30T02:12:20;6.22;;;3.28;;
83194;SDS011;73090;49.282;11.402;2024-01-30T02:16:22;6.78;;;3.38;;
83194;SDS011;73090;49.282;11.402;2024-01-30T02:20:24;7.25;;;4.30;;
83194;SDS011;73090;49.282;11.402;2024-01-30T02:24:26;5.05;;;3.28;;
83194;SDS011;73090;49.282;11.402;2024-01-30T02:28:28;5.88;;;4.22;;
83194;SDS011;73090;49.282;11.402;2024-01-30T02:32:29;8.52;;;3.75;;
83194;SDS011;73090;49.282;11.402;2024-01-30T02:36:31;6.80;;;4.00;;
83194;SDS011;73090;49.282;11.402;2024-01-30T02:40:32;7.05;;;4.28;;
83194;SDS011;73090;49.282;11.402;2024-01-30T02:44:34;7.20;;;3.58;;
83194;SDS011;73090;49.282;11.402;2024-01-30T02:48:35;8.07;;;4.70;;
83194;SDS011;73090;49.282;11.402;2024-01-30T02:52:37;6.28;;;3.80;;
83194;SDS011;73090;49.282;11.402;2024-01-30T02:56:39;4.82;;;3.55;;
83194;SDS011;73090;49.282;11.402;2024-01-30T03:00:40;5.22;;;3.78;;
83194;SDS011;73090;49.282;11.402;2024-01-30T03:04:42;5.45;;;3.55;;
83194;SDS011;73090;49.282;11.402;2024-01-30T03:08:44;6.45;;;4.20;;
83194;SDS011;73090;49.282;11.402;2024-01-30T03:12:46;7.50;;;4.63;;
83194;SDS011;73090;49.282;11.402;2024-01-30T03:16:47;8.98;;;4.25;;
83194;SDS011;73090;49.282;11.402;2024-01-30T03:20:49;11.02;;;4.75;;
83194;SDS011;73090;49.282;11.402;2024-01-30T03:24:50;7.53;;;4.57;;
83194;SDS011;73090;49.282;11.402;2024-01-30T03:28:52;7.75;;;4.30;;
83194;SDS011;73090;49.282;11.402;2024-01-30T03:32:54;8.27;;;5.28;;
83194;SDS011;73090;49.282;11.402;2024-01-30T03:36:56;7.38;;;4.18;;
83194;SDS011;73090;49.282;11.402;2024-01-30T03:40:59;9.25;;;4.97;;
83194;SDS011;73090;49.282;11.402;2024-01-30T03:45:01;10.23;;;5.38;;
83194;SDS011;73090;49.282;11.402;2024-01-30T03:49:03;9.50;;;4.20;;
83194;SDS011;73090;49.282;11.402;2024-01-30T03:53:05;11.20;;;5.50;;
83194;SDS011;73090;49.282;11.402;2024-01-30T03:57:06;13.13;;;5.13;;
83194;SDS011;73090;49.282;11.402;2024-01-30T04:01:12;10.65;;;5.10;;
83194;SDS011;73090;49.282;11.402;2024-01-30T04:05:15;10.52;;;6.00;;
83194;SDS011;73090;49.282;11.402;2024-01-30T04:09:16;13.20;;;5.85;;
83194;SDS011;73090;49.282;11.402;2024-01-30T04:13:18;11.43;;;6.05;;
83194;SDS011;73090;49.282;11.402;2024-01-30T04:17:20;11.88;;;5.80;;
83194;SDS011;73090;49.282;11.402;2024-01-30T04:21:22;10.77;;;5.50;;
83194;SDS011;73090;49.282;11.402;2024-01-30T04:25:23;10.35;;;6.40;;
83194;SDS011;73090;49.282;11.402;2024-01-30T04:29:25;14.15;;;5.43;;
83194;SDS011;73090;49.282;11.402;2024-01-30T04:33:27;11.70;;;6.18;;
83194;SDS011;73090;49.282;11.402;2024-01-30T04:37:28;11.32;;;5.65;;
83194;SDS011;73090;49.282;11.402;2024-01-30T04:41:30;9.50;;;5.70;;
83194;SDS011;73090;49.282;11.402;2024-01-30T04:45:33;9.38;;;5.10;;
83194;SDS011;73090;49.282;11.402;2024-01-30T04:49:34;8.23;;;6.10;;
83194;SDS011;73090;49.282;11.402;2024-01-30T04:53:36;12.60;;;6.50;;
83194;SDS011;73090;49.282;11.402;2024-01-30T04:57:38;12.20;;;6.53;;
83194;SDS011;73090;49.282;11.402;2024-01-30T05:01:40;11.73;;;5.60;;
83194;SDS011;73090;49.282;11.402;2024-01-30T05:05:41;10.20;;;5.85;;
83194;SDS011;73090;49.282;11.402;2024-01-30T05:09:43;10.18;;;5.68;;
83194;SDS011;73090;49.282;11.402;2024-01-30T05:13:44;11.13;;;5.05;;
83194;SDS011;73090;49.282;11.402;2024-01-30T05:17:46;10.20;;;5.13;;
83194;SDS011;73090;49.282;11.402;2024-01-30T05:21:47;6.57;;;4.45;;
83194;SDS011;73090;49.282;11.402;2024-01-30T05:25:49;12.88;;;5.93;;
83194;SDS011;73090;49.282;11.402;2024-01-30T05:29:51;10.90;;;5.30;;
83194;SDS011;73090;49.282;11.402;2024-01-30T05:33:52;13.68;;;6.07;;
83194;SDS011;73090;49.282;11.402;2024-01-30T05:37:55;11.05;;;4.72;;
83194;SDS011;73090;49.282;11.402;2024-01-30T05:41:57;8.65;;;5.07;;
83194;SDS011;73090;49.282;11.402;2024-01-30T05:45:58;10.23;;;5.15;;
83194;SDS011;73090;49.282;11.402;2024-01-30T05:50:00;9.65;;;6.00;;
83194;SDS011;73090;49.282;11.402;2024-01-30T05:54:02;11.57;;;5.72;;
83194;SDS011;73090;49.282;11.402;2024-01-30T05:58:05;10.95;;;5.53;;
83194;SDS011;73090;49.282;11.402;2024-01-30T06:02:06;14.02;;;7.22;;
83194;SDS011;73090;49.282;11.402;2024-01-30T06:06:08;12.02;;;6.38;;
83194;SDS011;73090;49.282;11.402;2024-01-30T06:10:10;13.52;;;6.32;;
83194;SDS011;73090;49.282;11.402;2024-01-30T06:14:11;9.05;;;5.45;;
83194;SDS011;73090;49.282;11.402;2024-01-30T06:18:13;12.95;;;6.15;;
83194;SDS011;73090;49.282;11.402;2024-01-30T06:22:15;13.35;;;7.03;;
83194;SDS011;73090;49.282;11.402;2024-01-30T06:26:17;14.23;;;6.68;;
83194;SDS011;73090;49.282;11.402;2024-01-30T06:30:18;14.38;;;7.35;;
83194;SDS011;73090;49.282;11.402;2024-01-30T06:34:21;18.48;;;7.00;;
83194;SDS011;73090;49.282;11.402;2024-01-30T06:38:22;14.52;;;7.28;;
83194;SDS011;73090;49.282;11.402;2024-01-30T06:42:24;11.60;;;7.15;;
83194;SDS011;73090;49.282;11.402;2024-01-30T06:46:26;15.63;;;7.60;;
83194;SDS011;73090;49.282;11.402;2024-01-30T06:50:28;12.40;;;6.68;;
83194;SDS011;73090;49.282;11.402;2024-01-30T06:54:30;11.05;;;7.10;;
83194;SDS011;73090;49.282;11.402;2024-01-30T06:58:32;12.25;;;6.78;;
83194;SDS011;73090;49.282;11.402;2024-01-30T07:02:34;11.18;;;6.18;;
83194;SDS011;73090;49.282;11.402;2024-01-30T07:06:35;10.10;;;5.88;;
83194;SDS011;73090;49.282;11.402;2024-01-30T07:10:37;15.02;;;7.38;;
83194;SDS011;73090;49.282;11.402;2024-01-30T07:14:39;14.15;;;7.32;;
83194;SDS011;73090;49.282;11.402;2024-01-30T07:18:40;10.57;;;6.45;;
83194;SDS011;73090;49.282;11.402;2024-01-30T07:22:43;12.93;;;6.85;;
83194;SDS011;73090;49.282;11.402;2024-01-30T07:26:45;13.48;;;6.65;;
83194;SDS011;73090;49.282;11.402;2024-01-30T07:30:47;16.80;;;7.60;;
83194;SDS011;73090;49.282;11.402;2024-01-30T07:34:49;9.43;;;6.53;;
83194;SDS011;73090;49.282;11.402;2024-01-30T07:39:07;10.65;;;6.65;;
83194;SDS011;73090;49.282;11.402;2024-01-30T07:43:08;14.27;;;7.32;;
83194;SDS011;73090;49.282;11.402;2024-01-30T07:47:10;16.92;;;7.60;;
83194;SDS011;73090;49.282;11.402;2024-01-30T07:51:12;18.70;;;8.85;;
83194;SDS011;73090;49.282;11.402;2024-01-30T07:55:13;16.27;;;8.48;;
83194;SDS011;73090;49.282;11.402;2024-01-30T07:59:15;14.88;;;8.45;;
83194;SDS011;73090;49.282;11.402;2024-01-30T08:03:17;15.68;;;8.43;;
83194;SDS011;73090;49.282;11.402;2024-01-30T08:07:19;25.40;;;10.73;;
83194;SDS011;73090;49.282;11.402;2024-01-30T08:11:22;30.88;;;13.52;;
83194;SDS011;73090;49.282;11.402;2024-01-30T08:15:28;24.42;;;13.05;;
83194;SDS011;73090;49.282;11.402;2024-01-30T08:19:29;26.20;;;12.30;;
83194;SDS011;73090;49.282;11.402;2024-01-30T08:23:31;21.95;;;11.07;;
83194;SDS011;73090;49.282;11.402;2024-01-30T08:27:32;21.70;;;12.02;;
83194;SDS011;73090;49.282;11.402;2024-01-30T08:31:34;18.92;;;10.68;;
83194;SDS011;73090;49.282;11.402;2024-01-30T08:35:36;23.17;;;12.30;;
83194;SDS011;73090;49.282;11.402;2024-01-30T08:39:37;26.95;;;12.82;;
83194;SDS011;73090;49.282;11.402;2024-01-30T08:43:39;23.73;;;12.57;;
83194;SDS011;73090;49.282;11.402;2024-01-30T08:47:40;22.40;;;11.68;;
83194;SDS011;73090;49.282;11.402;2024-01-30T08:51:42;20.42;;;11.80;;
83194;SDS011;73090;49.282;11.402;2024-01-30T08:55:44;19.08;;;11.57;;
83194;SDS011;73090;49.282;11.402;2024-01-30T08:59:46;25.23;;;12.10;;
83194;SDS011;73090;49.282;11.402;2024-01-30T09:03:47;22.05;;;11.32;;
83194;SDS011;73090;49.282;11.402;2024-01-30T09:07:49;20.95;;;11.60;;
83194;SDS011;73090;49.282;11.402;2024-01-30T09:11:51;19.05;;;11.27;;
83194;SDS011;73090;49.282;11.402;2024-01-30T09:15:53;21.35;;;11.05;;
83194;SDS011;73090;49.282;11.402;2024-01-30T09:19:54;25.08;;;13.80;;
83194;SDS011;73090;49.282;11.402;2024-01-30T09:24:01;23.98;;;12.73;;
83194;SDS011;73090;49.282;11.402;2024-01-30T09:28:05;23.58;;;13.18;;
83194;SDS011;73090;49.282;11.402;2024-01-30T09:32:07;22.67;;;12.52;;
83194;SDS011;73090;49.282;11.402;2024-01-30T09:36:10;24.20;;;13.88;;
83194;SDS011;73090;49.282;11.402;2024-01-30T09:40:11;21.42;;;12.48;;
83194;SDS011;73090;49.282;11.402;2024-01-30T09:44:13;18.00;;;11.00;;
83194;SDS011;73090;49.282;11.402;2024-01-30T09:48:17;19.52;;;11.98;;
83194;SDS011;73090;49.282;11.402;2024-01-30T09:52:19;21.13;;;12.65;;
83194;SDS011;73090;49.282;11.402;2024-01-30T09:56:21;26.60;;;13.02;;
83194;SDS011;73090;49.282;11.402;2024-01-30T10:00:23;21.27;;;11.77;;
83194;SDS011;73090;49.282;11.402;2024-01-30T10:04:28;22.95;;;12.52;;
83194;SDS011;73090;49.282;11.402;2024-01-30T10:08:30;21.63;;;11.95;;
83194;SDS011;73090;49.282;11.402;2024-01-30T10:12:31;25.85;;;12.90;;
83194;SDS011;73090;49.282;11.402;2024-01-30T10:16:36;20.08;;;11.05;;
83194;SDS011;73090;49.282;11.402;2024-01-30T10:20:38;18.88;;;10.73;;
83194;SDS011;73090;49.282;11.402;2024-01-30T10:24:39;18.27;;;11.57;;
83194;SDS011;73090;49.282;11.402;2024-01-30T10:28:41;18.77;;;11.70;;
83194;SDS011;73090;49.282;11.402;2024-01-30T10:32:42;20.92;;;11.18;;
83194;SDS011;73090;49.282;11.402;2024-01-30T10:36:44;19.58;;;11.38;;
83194;SDS011;73090;49.282;11.402;2024-01-30T10:40:51;21.38;;;11.18;;
83194;SDS011;73090;49.282;11.402;2024-01-30T10:45:07;18.50;;;10.68;;
83194;SDS011;73090;49.282;11.402;2024-01-30T10:49:16;18.20;;;11.23;;
83194;SDS011;73090;49.282;11.402;2024-01-30T10:53:19;20.75;;;11.80;;
83194;SDS011;73090;49.282;11.402;2024-01-30T10:57:25;19.88;;;10.57;;
83194;SDS011;73090;49.282;11.402;2024-01-30T11:01:28;21.85;;;11.82;;
83194;SDS011;73090;49.282;11.402;2024-01-30T11:05:30;18.42;;;11.65;;
83194;SDS011;73090;49.282;11.402;2024-01-30T11:09:36;19.27;;;12.25;;
83194;SDS011;73090;49.282;11.402;2024-01-30T11:13:38;28.10;;;12.60;;
83194;SDS011;73090;49.282;11.402;2024-01-30T11:17:50;19.13;;;10.65;;
83194;SDS011;73090;49.282;11.402;2024-01-30T11:21:54;20.70;;;11.50;;
83194;SDS011;73090;49.282;11.402;2024-01-30T11:25:56;21.20;;;10.95;;
83194;SDS011;73090;49.282;11.402;2024-01-30T11:30:02;23.83;;;11.00;;
83194;SDS011;73090;49.282;11.402;2024-01-30T11:34:04;20.98;;;12.40;;
83194;SDS011;73090;49.282;11.402;2024-01-30T11:38:08;21.52;;;12.07;;
83194;SDS011;73090;49.282;11.402;2024-01-30T11:42:11;21.38;;;12.00;;
83194;SDS011;73090;49.282;11.402;2024-01-30T11:46:14;19.73;;;11.05;;
83194;SDS011;73090;49.282;11.402;2024-01-30T11:50:15;24.08;;;12.40;;
83194;SDS011;73090;49.282;11.402;2024-01-30T11:54:18;20.83;;;11.70;;
83194;SDS011;73090;49.282;11.402;2024-01-30T11:58:20;20.92;;;11.48;;
83194;SDS011;73090;49.282;11.402;2024-01-30T12:02:21;20.13;;;10.65;;
83194;SDS011;73090;49.282;11.402;2024-01-30T12:06:23;23.40;;;11.63;;
83194;SDS011;73090;49.282;11.402;2024-01-30T12:10:25;19.88;;;11.65;;
83194;SDS011;73090;49.282;11.402;2024-01-30T12:14:27;23.30;;;12.45;;
83194;SDS011;73090;49.282;11.402;2024-01-30T12:18:30;20.60;;;10.32;;
83194;SDS011;73090;49.282;11.402;2024-01-30T12:22:39;22.73;;;12.95;;
83194;SDS011;73090;49.282;11.402;2024-01-30T12:26:42;19.02;;;10.80;;
83194;SDS011;73090;49.282;11.402;2024-01-30T12:30:43;19.00;;;10.07;;
83194;SDS011;73090;49.282;11.402;2024-01-30T12:34:45;19.63;;;11.52;;
83194;SDS011;73090;49.282;11.402;2024-01-30T12:39:01;18.77;;;11.23;;
83194;SDS011;73090;49.282;11.402;2024-01-30T12:43:02;23.23;;;11.23;;
83194;SDS011;73090;49.282;11.402;2024-01-30T12:47:10;18.48;;;10.70;;
83194;SDS011;73090;49.282;11.402;2024-01-30T12:51:11;17.90;;;11.25;;
83194;SDS011;73090;49.282;11.402;2024-01-30T12:55:13;17.38;;;10.55;;
83194;SDS011;73090;49.282;11.402;2024-01-30T12:59:15;22.77;;;11.57;;
83194;SDS011;73090;49.282;11.402;2024-01-30T13:03:17;17.75;;;10.68;;
83194;SDS011;73090;49.282;11.402;2024-01-30T13:07:19;21.17;;;11.07;;
83194;SDS011;73090;49.282;11.402;2024-01-30T13:11:22;18.58;;;10.40;;
83194;SDS011;73090;49.282;11.402;2024-01-30T13:15:23;18.00;;;10.18;;
83194;SDS011;73090;49.282;11.402;2024-01-30T13:19:25;19.20;;;11.73;;
83194;SDS011;73090;49.282;11.402;2024-01-30T13:23:27;19.50;;;10.73;;
83194;SDS011;73090;49.282;11.402;2024-01-30T13:27:28;25.88;;;11.05;;
83194;SDS011;73090;49.282;11.402;2024-01-30T13:31:30;16.75;;;10.07;;
83194;SDS011;73090;49.282;11.402;2024-01-30T13:35:32;17.50;;;11.05;;
83194;SDS011;73090;49.282;11.402;2024-01-30T13:39:34;20.02;;;10.15;;
83194;SDS011;73090;49.282;11.402;2024-01-30T13:43:40;20.90;;;10.45;;
83194;SDS011;73090;49.282;11.402;2024-01-30T13:47:41;15.57;;;9.43;;
83194;SDS011;73090;49.282;11.402;2024-01-30T13:51:43;20.50;;;10.50;;
83194;SDS011;73090;49.282;11.402;2024-01-30T13:55:45;17.05;;;9.65;;
83194;SDS011;73090;49.282;11.402;2024-01-30T13:59:46;19.70;;;11.63;;
83194;SDS011;73090;49.282;11.402;2024-01-30T14:03:48;21.48;;;9.95;;
83194;SDS011;73090;49.282;11.402;2024-01-30T14:07:50;18.42;;;10.00;;
83194;SDS011;73090;49.282;11.402;2024-01-30T14:11:53;15.32;;;9.75;;
83194;SDS011;73090;49.282;11.402;2024-01-30T14:15:55;16.90;;;9.93;;
83194;SDS011;73090;49.282;11.402;2024-01-30T14:19:57;15.25;;;9.32;;
83194;SDS011;73090;49.282;11.402;2024-01-30T14:23:58;16.50;;;9.95;;
83194;SDS011;73090;49.282;11.402;2024-01-30T14:28:00;16.95;;;10.05;;
83194;SDS011;73090;49.282;11.402;2024-01-30T14:32:03;16.05;;;8.90;;
83194;SDS011;73090;49.282;11.402;2024-01-30T14:36:06;16.23;;;9.23;;
83194;SDS011;73090;49.282;11.402;2024-01-30T14:40:09;14.80;;;7.63;;
83194;SDS011;73090;49.282;11.402;2024-01-30T14:44:11;12.52;;;7.40;;
83194;SDS011;73090;49.282;11.402;2024-01-30T14:48:13;12.10;;;7.80;;
83194;SDS011;73090;49.282;11.402;2024-01-30T14:52:15;13.13;;;7.38;;
83194;SDS011;73090;49.282;11.402;2024-01-30T14:56:16;10.57;;;6.78;;
83194;SDS011;73090;49.282;11.402;2024-01-30T15:00:18;12.15;;;6.30;;
83194;SDS011;73090;49.282;11.402;2024-01-30T15:04:20;11.18;;;7.28;;
83194;SDS011;73090;49.282;11.402;2024-01-30T15:08:22;10.57;;;6.60;;
83194;SDS011;73090;49.282;11.402;2024-01-30T15:12:24;11.15;;;6.28;;
83194;SDS011;73090;49.282;11.402;2024-01-30T15:16:26;13.43;;;7.03;;
83194;SDS011;73090;49.282;11.402;2024-01-30T15:20:28;11.00;;;5.82;;
83194;SDS011;73090;49.282;11.402;2024-01-30T15:24:30;11.57;;;6.63;;
83194;SDS011;73090;49.282;11.402;2024-01-30T15:28:35;10.50;;;6.90;;
83194;SDS011;73090;49.282;11.402;2024-01-30T15:32:38;12.55;;;6.20;;
83194;SDS011;73090;49.282;11.402;2024-01-30T15:36:40;10.02;;;6.30;;
83194;SDS011;73090;49.282;11.402;2024-01-30T15:40:41;8.95;;;6.28;;
83194;SDS011;73090;49.282;11.402;2024-01-30T15:44:43;10.27;;;6.32;;
83194;SDS011;73090;49.282;11.402;2024-01-30T15:48:45;10.65;;;5.32;;
83194;SDS011;73090;49.282;11.402;2024-01-30T15:52:46;7.38;;;5.63;;
83194;SDS011;73090;49.282;11.402;2024-01-30T15:56:48;10.93;;;6.45;;
83194;SDS011;73090;49.282;11.402;2024-01-30T16:00:49;12.20;;;8.05;;
83194;SDS011;73090;49.282;11.402;2024-01-30T16:04:51;12.55;;;6.30;;
83194;SDS011;73090;49.282;11.402;2024-01-30T16:08:53;10.63;;;6.75;;
83194;SDS011;73090;49.282;11.402;2024-01-30T16:12:57;10.23;;;6.35;;
83194;SDS011;73090;49.282;11.402;2024-01-30T16:16:59;12.63;;;6.97;;
83194;SDS011;73090;49.282;11.402;2024-01-30T16:21:01;10.45;;;6.55;;
83194;SDS011;73090;49.282;11.402;2024-01-30T16:25:04;13.68;;;7.22;;
83194;SDS011;73090;49.282;11.402;2024-01-30T16:29:06;12.48;;;7.40;;
83194;SDS011;73090;49.282;11.402;2024-01-30T16:33:08;12.43;;;7.38;;
83194;SDS011;73090;49.282;11.402;2024-01-30T16:37:11;13.32;;;8.27;;
83194;SDS011;73090;49.282;11.402;2024-01-30T16:41:13;10.10;;;7.75;;
83194;SDS011;73090;49.282;11.402;2024-01-30T16:45:14;14.77;;;7.43;;
83194;SDS011;73090;49.282;11.402;2024-01-30T16:49:16;12.32;;;7.30;;
83194;SDS011;73090;49.282;11.402;2024-01-30T16:53:19;12.63;;;7.78;;
83194;SDS011;73090;49.282;11.402;2024-01-30T16:57:20;16.02;;;8.40;;
83194;SDS011;73090;49.282;11.402;2024-01-30T17:01:22;19.08;;;9.30;;
83194;SDS011;73090;49.282;11.402;2024-01-30T17:05:24;13.85;;;8.00;;
83194;SDS011;73090;49.282;11.402;2024-01-30T17:09:28;18.30;;;9.38;;
83194;SDS011;73090;49.282;11.402;2024-01-30T17:13:30;17.38;;;7.82;;
83194;SDS011;73090;49.282;11.402;2024-01-30T17:17:32;13.00;;;8.15;;
83194;SDS011;73090;49.282;11.402;2024-01-30T17:21:33;12.50;;;7.18;;
83194;SDS011;73090;49.282;11.402;2024-01-30T17:25:39;11.73;;;6.45;;
83194;SDS011;73090;49.282;11.402;2024-01-30T17:29:41;15.10;;;7.00;;
83194;SDS011;73090;49.282;11.402;2024-01-30T17:33:43;16.60;;;9.15;;
83194;SDS011;73090;49.282;11.402;2024-01-30T17:37:44;14.93;;;7.28;;
83194;SDS011;73090;49.282;11.402;2024-01-30T17:41:46;18.30;;;7.82;;
83194;SDS011;73090;49.282;11.402;2024-01-30T17:45:48;13.75;;;7.90;;
83194;SDS011;73090;49.282;11.402;2024-01-30T17:49:49;15.60;;;7.38;;
83194;SDS011;73090;49.282;11.402;2024-01-30T17:53:51;10.48;;;6.93;;
83194;SDS011;73090;49.282;11.402;2024-01-30T17:57:53;13.52;;;6.72;;
83194;SDS011;73090;49.282;11.402;2024-01-30T18:01:55;10.40;;;7.15;;
83194;SDS011;73090;49.282;11.402;2024-01-30T18:05:56;10.75;;;7.03;;
83194;SDS011;73090;49.282;11.402;2024-01-30T18:09:58;13.27;;;6.68;;
83194;SDS011;73090;49.282;11.402;2024-01-30T18:14:00;9.48;;;5.53;;
83194;SDS011;73090;49.282;11.402;2024-01-30T18:18:02;10.70;;;6.60;;
83194;SDS011;73090;49.282;11.402;2024-01-30T18:22:04;10.35;;;6.70;;
83194;SDS011;73090;49.282;11.402;2024-01-30T18:26:05;10.30;;;6.63;;
83194;SDS011;73090;49.282;11.402;2024-01-30T18:30:07;10.48;;;6.00;;
83194;SDS011;73090;49.282;11.402;2024-01-30T18:34:09;11.77;;;7.30;;
83194;SDS011;73090;49.282;11.402;2024-01-30T18:38:11;12.98;;;8.18;;
83194;SDS011;73090;49.282;11.402;2024-01-30T18:42:13;19.13;;;9.57;;
83194;SDS011;73090;49.282;11.402;2024-01-30T18:46:14;12.70;;;6.55;;
83194;SDS011;73090;49.282;11.402;2024-01-30T18:50:22;15.02;;;7.97;;
83194;SDS011;73090;49.282;11.402;2024-01-30T18:54:24;8.55;;;6.80;;
83194;SDS011;73090;49.282;11.402;2024-01-30T18:58:26;12.98;;;6.60;;
83194;SDS011;73090;49.282;11.402;2024-01-30T19:02:29;8.38;;;6.05;;
83194;SDS011;73090;49.282;11.402;2024-01-30T19:06:30;11.27;;;8.07;;
83194;SDS011;73090;49.282;11.402;2024-01-30T19:10:32;8.77;;;5.70;;
83194;SDS011;73090;49.282;11.402;2024-01-30T19:14:43;11.18;;;6.78;;
83194;SDS011;73090;49.282;11.402;2024-01-30T19:18:45;10.77;;;6.57;;
83194;SDS011;73090;49.282;11.402;2024-01-30T19:22:46;10.65;;;7.15;;
83194;SDS011;73090;49.282;11.402;2024-01-30T19:26:48;11.40;;;6.50;;
83194;SDS011;73090;49.282;11.402;2024-01-30T19:30:50;11.35;;;7.35;;
83194;SDS011;73090;49.282;11.402;2024-01-30T19:34:52;8.95;;;6.00;;
83194;SDS011;73090;49.282;11.402;2024-01-30T19:38:54;11.07;;;6.35;;
83194;SDS011;73090;49.282;11.402;2024-01-30T19:42:56;10.20;;;5.75;;
83194;SDS011;73090;49.282;11.402;2024-01-30T19:46:58;11.50;;;6.55;;
83194;SDS011;73090;49.282;11.402;2024-01-30T19:51:06;13.70;;;6.18;;
83194;SDS011;73090;49.282;11.402;2024-01-30T19:55:08;7.90;;;6.05;;
83194;SDS011;73090;49.282;11.402;2024-01-30T19:59:10;9.45;;;6.47;;
83194;SDS011;73090;49.282;11.402;2024-01-30T20:03:12;9.68;;;5.85;;
83194;SDS011;73090;49.282;11.402;2024-01-30T20:07:14;11.75;;;6.15;;
83194;SDS011;73090;49.282;11.402;2024-01-30T20:11:18;10.65;;;6.60;;
83194;SDS011;73090;49.282;11.402;2024-01-30T20:15:20;9.00;;;6.15;;
83194;SDS011;73090;49.282;11.402;2024-01-30T20:19:22;15.07;;;7.72;;
83194;SDS011;73090;49.282;11.402;2024-01-30T20:23:24;10.85;;;7.45;;
83194;SDS011;73090;49.282;11.402;2024-01-30T20:27:26;11.75;;;6.38;;
83194;SDS011;73090;49.282;11.402;2024-01-30T20:31:28;9.32;;;5.63;;
83194;SDS011;73090;49.282;11.402;2024-01-30T20:35:30;12.07;;;5.78;;
83194;SDS011;73090;49.282;11.402;2024-01-30T20:39:32;7.90;;;4.93;;
83194;SDS011;73090;49.282;11.402;2024-01-30T20:43:34;12.50;;;5.55;;
83194;SDS011;73090;49.282;11.402;2024-01-30T20:47:36;11.18;;;6.40;;
83194;SDS011;73090;49.282;11.402;2024-01-30T20:51:37;9.10;;;5.38;;
83194;SDS011;73090;49.282;11.402;2024-01-30T20:55:39;10.55;;;5.05;;
83194;SDS011;73090;49.282;11.402;2024-01-30T20:59:41;10.65;;;5.50;;
83194;SDS011;73090;49.282;11.402;2024-01-30T21:03:43;10.80;;;5.53;;
83194;SDS011;73090;49.282;11.402;2024-01-30T21:07:46;8.98;;;5.45;;
83194;SDS011;73090;49.282;11.402;2024-01-30T21:11:48;9.80;;;5.50;;
83194;SDS011;73090;49.282;11.402;2024-01-30T21:15:50;11.02;;;6.45;;
83194;SDS011;73090;49.282;11.402;2024-01-30T21:19:52;6.05;;;4.78;;
83194;SDS011;73090;49.282;11.402;2024-01-30T21:23:53;7.78;;;4.80;;
83194;SDS011;73090;49.282;11.402;2024-01-30T21:27:55;8.55;;;5.22;;
83194;SDS011;73090;49.282;11.402;2024-01-30T21:31:57;13.65;;;5.75;;
83194;SDS011;73090;49.282;11.402;2024-01-30T21:35:59;8.57;;;5.32;;
83194;SDS011;73090;49.282;11.402;2024-01-30T21:40:01;7.53;;;5.22;;
83194;SDS011;73090;49.282;11.402;2024-01-30T21:44:05;9.25;;;5.63;;
83194;SDS011;73090;49.282;11.402;2024-01-30T21:48:07;9.43;;;5.93;;
83194;SDS011;73090;49.282;11.402;2024-01-30T21:52:08;10.18;;;5.40;;
83194;SDS011;73090;49.282;11.402;2024-01-30T21:56:10;9.88;;;5.70;;
83194;SDS011;73090;49.282;11.402;2024-01-30T22:00:12;9.45;;;5.50;;
83194;SDS011;73090;49.282;11.402;2024-01-30T22:04:14;9.25;;;6.07;;
83194;SDS011;73090;49.282;11.402;2024-01-30T22:08:18;8.30;;;4.95;;
83194;SDS011;73090;49.282;11.402;2024-01-30T22:12:20;8.20;;;5.72;;
83194;SDS011;73090;49.282;11.402;2024-01-30T22:16:21;7.25;;;5.18;;
83194;SDS011;73090;49.282;11.402;2024-01-30T22:20:23;10.70;;;6.55;;
83194;SDS011;73090;49.282;11.402;2024-01-30T22:24:25;7.63;;;5.05;;
83194;SDS011;73090;49.282;11.402;2024-01-30T22:28:27;9.07;;;5.40;;
83194;SDS011;73090;49.282;11.402;2024-01-30T22:32:28;11.63;;;5.78;;
83194;SDS011;73090;49.282;11.402;2024-01-30T22:36:30;9.52;;;6.22;;
83194;SDS011;73090;49.282;11.402;2024-01-30T22:40:32;8.45;;;5.90;;
83194;SDS011;73090;49.282;11.402;2024-01-30T22:44:34;10.18;;;6.70;;
83194;SDS011;73090;49.282;11.402;2024-01-30T22:48:35;11.60;;;6.20;;
83194;SDS011;73090;49.282;11.402;2024-01-30T22:52:37;11.68;;;6.57;;
83194;SDS011;73090;49.282;11.402;2024-01-30T22:56:39;12.07;;;6.90;;
83194;SDS011;73090;49.282;11.402;2024-01-30T23:00:40;11.15;;;6.88;;
83194;SDS011;73090;49.282;11.402;2024-01-30T23:04:42;14.73;;;8.68;;
83194;SDS011;73090;49.282;11.402;2024-01-30T23:08:44;10.30;;;6.18;;
83194;SDS011;73090;49.282;11.402;2024-01-30T23:12:46;15.52;;;8.85;;
83194;SDS011;73090;49.282;11.402;2024-01-30T23:16:48;13.70;;;9.75;;
83194;SDS011;73090;49.282;11.402;2024-01-30T23:20:49;12.70;;;7.85;;
83194;SDS011;73090;49.282;11.402;2024-01-30T23:24:51;11.57;;;6.72;;
83194;SDS011;73090;49.282;11.402;2024-01-30T23:28:53;12.57;;;6.97;;
83194;SDS011;73090;49.282;11.402;2024-01-30T23:32:55;31.33;;;19.55;;
83194;SDS011;73090;49.282;11.402;2024-01-30T23:36:56;16.50;;;10.15;;